createdAt,value
2022-12-13T00:02:40.503Z,58.54
2022-12-13T00:05:15.066Z,59.15
2022-12-13T00:08:10.428Z,59.22
2022-12-13T00:14:41.559Z,59.94
2022-12-13T00:17:09.866Z,59.90
2022-12-13T00:19:45.861Z,59.98
2022-12-13T00:25:05.930Z,59.79
2022-12-13T00:28:00.965Z,59.82
2022-12-13T00:30:50.652Z,60.19
2022-12-13T00:33:25.606Z,60.14
2022-12-13T00:35:54.343Z,60.96
2022-12-13T00:38:22.967Z,61.04
2022-12-13T00:40:53.072Z,61.63
2022-12-13T00:43:21.678Z,62.27
2022-12-13T00:45:58.864Z,62.83
2022-12-13T00:48:27.359Z,62.73
2022-12-13T00:54:09.283Z,63.37
2022-12-13T00:57:16.840Z,63.93
2022-12-13T01:00:38.211Z,64.05
2022-12-13T01:09:59.988Z,64.76
2022-12-13T01:12:41.524Z,65.58
2022-12-13T01:15:10.626Z,65.64
2022-12-13T01:17:39.007Z,66.60
2022-12-13T01:20:10.970Z,66.61
2022-12-13T01:22:39.225Z,67.58
2022-12-13T01:25:09.704Z,67.36
2022-12-13T01:27:38.029Z,67.63
2022-12-13T01:30:06.885Z,67.65
2022-12-13T01:32:35.358Z,67.95
2022-12-13T01:35:03.729Z,68.52
2022-12-13T01:37:37.393Z,68.77
2022-12-13T01:40:16.325Z,68.97
2022-12-13T01:42:45.074Z,69.32
2022-12-13T01:45:32.229Z,69.38
2022-12-13T01:48:11.023Z,69.13
2022-12-13T01:51:06.134Z,69.04
2022-12-13T01:53:47.736Z,68.97
2022-12-13T01:57:09.626Z,69.74
2022-12-13T01:59:43.902Z,69.41
2022-12-13T02:02:15.200Z,69.52
2022-12-13T02:05:05.913Z,69.74
2022-12-13T02:07:36.788Z,69.77
2022-12-13T02:10:07.672Z,69.76
2022-12-13T02:12:38.516Z,69.73
2022-12-13T02:15:26.889Z,70.31
2022-12-13T02:18:17.250Z,70.38
2022-12-13T02:21:08.159Z,70.43
2022-12-13T02:24:11.213Z,71.25
2022-12-13T02:27:02.927Z,71.15
2022-12-13T02:29:50.573Z,72.30
2022-12-13T02:33:12.280Z,71.81
2022-12-13T02:36:21.633Z,71.98
2022-12-13T02:39:09.858Z,71.92
2022-12-13T02:41:58.182Z,71.98
2022-12-13T02:45:09.138Z,72.44
2022-12-13T02:47:42.930Z,72.22
2022-12-13T02:50:14.511Z,72.82
2022-12-13T02:52:47.296Z,73.84
2022-12-13T02:55:17.781Z,73.12
2022-12-13T02:57:49.606Z,73.10
2022-12-13T03:00:20.856Z,73.13
2022-12-13T03:03:10.659Z,72.98
2022-12-13T03:06:02.835Z,72.86
2022-12-13T03:08:44.524Z,73.14
2022-12-13T03:11:15.116Z,73.70
2022-12-13T03:14:06.394Z,72.96
2022-12-13T03:16:55.890Z,72.80
2022-12-13T03:19:24.666Z,72.24
2022-12-13T03:21:53.037Z,72.41
2022-12-13T03:24:22.605Z,71.99
2022-12-13T03:26:52.990Z,71.80
2022-12-13T03:29:23.459Z,71.83
2022-12-13T03:31:52.565Z,71.20
2022-12-13T03:34:22.247Z,71.47
2022-12-13T03:36:54.750Z,71.87
2022-12-13T03:39:24.063Z,71.98
2022-12-13T03:41:52.752Z,72.54
2022-12-13T03:44:21.117Z,72.76
2022-12-13T03:46:49.447Z,73.20
2022-12-13T03:49:17.834Z,73.64
2022-12-13T03:51:46.714Z,73.96
2022-12-13T03:54:14.990Z,73.86
2022-12-13T03:56:43.239Z,74.21
2022-12-13T03:59:11.711Z,74.59
2022-12-13T04:01:40.025Z,74.52
2022-12-13T04:04:09.414Z,74.63
2022-12-13T04:06:37.641Z,74.64
2022-12-13T04:09:05.938Z,74.68
2022-12-13T04:11:52.618Z,74.74
2022-12-13T04:14:23.843Z,75.07
2022-12-13T04:16:53.208Z,75.04
2022-12-13T04:19:24.353Z,74.87
2022-12-13T04:21:54.988Z,74.67
2022-12-13T04:24:31.309Z,74.88
2022-12-13T04:27:01.781Z,75.21
2022-12-13T04:29:33.907Z,75.29
2022-12-13T04:32:04.920Z,75.51
2022-12-13T04:34:37.615Z,75.87
2022-12-13T04:37:10.462Z,76.01
2022-12-13T04:39:38.727Z,76.34
2022-12-13T04:42:16.861Z,76.30
2022-12-13T04:44:46.280Z,76.39
2022-12-13T04:47:14.694Z,76.69
2022-12-13T04:49:42.968Z,76.69
2022-12-13T04:52:12.018Z,76.90
2022-12-13T04:54:55.604Z,76.79
2022-12-13T04:57:24.717Z,76.96
2022-12-13T04:59:56.067Z,77.36
2022-12-13T05:02:33.897Z,77.02
2022-12-13T05:05:03.145Z,77.27
2022-12-13T05:07:31.690Z,77.33
2022-12-13T05:09:59.899Z,77.73
2022-12-13T05:12:28.353Z,77.89
2022-12-13T05:14:56.573Z,77.88
2022-12-13T05:17:25.057Z,78.08
2022-12-13T05:19:56.042Z,78.16
2022-12-13T05:22:24.291Z,78.29
2022-12-13T05:24:52.681Z,78.60
2022-12-13T05:27:25.220Z,78.58
2022-12-13T05:30:04.959Z,78.71
2022-12-13T05:32:44.771Z,78.83
2022-12-13T05:35:23.157Z,78.88
2022-12-13T05:37:57.307Z,79.03
2022-12-13T05:40:27.358Z,78.96
2022-12-13T05:43:01.579Z,78.80
2022-12-13T05:45:32.355Z,78.71
2022-12-13T05:48:01.057Z,79.19
2022-12-13T05:50:29.580Z,79.25
2022-12-13T05:52:57.991Z,79.49
2022-12-13T05:55:26.188Z,79.57
2022-12-13T05:57:54.451Z,79.71
2022-12-13T06:00:33.718Z,79.81
2022-12-13T06:03:03.301Z,79.91
2022-12-13T06:05:32.812Z,79.62
2022-12-13T06:08:04.425Z,79.73
2022-12-13T06:11:10.320Z,79.66
2022-12-13T06:13:44.332Z,79.84
2022-12-13T06:16:22.886Z,79.98
2022-12-13T06:19:02.778Z,80.07
2022-12-13T06:21:43.533Z,79.99
2022-12-13T06:24:19.201Z,79.88
2022-12-13T06:26:47.854Z,79.69
2022-12-13T06:29:25.208Z,79.70
2022-12-13T06:32:01.905Z,79.79
2022-12-13T06:34:34.292Z,79.67
2022-12-13T06:37:04.029Z,79.77
2022-12-13T06:39:33.627Z,79.87
2022-12-13T06:42:04.270Z,79.82
2022-12-13T06:44:32.658Z,80.06
2022-12-13T06:47:11.689Z,80.08
2022-12-13T06:49:43.919Z,80.14
2022-12-13T06:52:13.772Z,80.11
2022-12-13T06:54:42.631Z,80.20
2022-12-13T06:57:12.779Z,80.34
2022-12-13T06:59:43.823Z,80.27
2022-12-13T07:02:25.309Z,80.11
2022-12-13T07:04:55.888Z,79.93
2022-12-13T07:07:25.528Z,80.14
2022-12-13T07:09:55.683Z,80.14
2022-12-13T07:12:24.401Z,80.29
2022-12-13T07:14:52.760Z,80.47
2022-12-13T07:17:33.205Z,80.13
2022-12-13T07:20:10.949Z,80.22
2022-12-13T07:22:45.186Z,80.22
2022-12-13T07:25:28.418Z,80.42
2022-12-13T07:28:03.050Z,80.75
2022-12-13T07:30:41.472Z,80.67
2022-12-13T07:33:10.901Z,80.72
2022-12-13T07:35:39.615Z,80.65
2022-12-13T07:38:09.018Z,80.61
2022-12-13T07:40:38.827Z,80.56
2022-12-13T07:43:07.956Z,80.63
2022-12-13T07:45:37.394Z,80.85
2022-12-13T07:48:06.952Z,80.94
2022-12-13T07:50:37.135Z,80.91
2022-12-13T07:53:10.198Z,80.82
2022-12-13T07:55:39.311Z,80.78
2022-12-13T07:58:09.707Z,80.62
2022-12-13T08:00:39.704Z,80.67
2022-12-13T08:03:13.430Z,80.68
2022-12-13T08:06:03.728Z,80.87
2022-12-13T08:08:32.691Z,81.03
2022-12-13T08:11:13.086Z,81.08
2022-12-13T08:13:42.317Z,81.14
2022-12-13T08:16:27.492Z,81.02
2022-12-13T08:19:04.047Z,80.90
2022-12-13T08:21:58.290Z,80.72
2022-12-13T08:24:29.324Z,81.05
2022-12-13T08:27:03.091Z,81.17
2022-12-13T08:29:36.403Z,81.34
2022-12-13T08:32:11.307Z,81.18
2022-12-13T08:34:40.197Z,81.33
2022-12-13T08:37:08.830Z,81.01
2022-12-13T08:39:39.397Z,81.08
2022-12-13T08:42:16.589Z,81.08
2022-12-13T08:44:51.626Z,81.42
2022-12-13T08:47:22.553Z,81.66
2022-12-13T08:49:52.358Z,81.67
2022-12-13T08:52:23.171Z,81.76
2022-12-13T08:54:51.984Z,81.76
2022-12-13T08:57:20.227Z,81.38
2022-12-13T08:59:48.497Z,81.60
2022-12-13T09:02:17.399Z,81.43
2022-12-13T09:04:46.635Z,81.29
2022-12-13T09:07:15.319Z,81.31
2022-12-13T09:09:43.788Z,81.30
2022-12-13T09:12:30.896Z,81.37
2022-12-13T09:15:01.224Z,81.73
2022-12-13T09:17:36.735Z,81.47
2022-12-13T09:20:10.056Z,81.68
2022-12-13T09:23:02.406Z,81.78
2022-12-13T09:25:36.783Z,81.31
2022-12-13T09:28:10.185Z,81.41
2022-12-13T09:30:41.608Z,81.62
2022-12-13T09:33:27.975Z,81.59
2022-12-13T09:35:58.256Z,81.61
2022-12-13T09:38:29.667Z,81.53
2022-12-13T09:41:00.514Z,81.60
2022-12-13T09:43:42.508Z,81.84
2022-12-13T09:46:27.576Z,81.54
2022-12-13T09:49:05.840Z,81.64
2022-12-13T09:51:47.314Z,82.01
2022-12-13T09:54:22.244Z,81.86
2022-12-13T09:56:52.316Z,81.68
2022-12-13T09:59:29.249Z,81.55
2022-12-13T10:02:03.638Z,81.68
2022-12-13T10:04:32.775Z,81.55
2022-12-13T10:07:01.038Z,81.58
2022-12-13T10:09:29.336Z,81.91
2022-12-13T10:11:57.609Z,81.64
2022-12-13T10:14:44.806Z,81.63
2022-12-13T10:17:20.264Z,81.64
2022-12-13T10:19:53.480Z,81.55
2022-12-13T10:22:26.052Z,81.81
2022-12-13T10:25:04.753Z,81.93
2022-12-13T10:27:41.238Z,81.93
2022-12-13T10:30:14.042Z,81.71
2022-12-13T10:33:06.097Z,81.84
2022-12-13T10:35:43.347Z,82.20
2022-12-13T10:38:17.781Z,82.07
2022-12-13T10:40:46.551Z,82.01
2022-12-13T10:43:23.336Z,82.15
2022-12-13T10:46:04.056Z,81.97
2022-12-13T10:48:38.359Z,81.85
2022-12-13T10:51:16.369Z,81.86
2022-12-13T10:53:51.221Z,81.91
2022-12-13T10:56:22.784Z,82.12
2022-12-13T10:59:15.009Z,82.32
2022-12-13T11:01:45.777Z,82.60
2022-12-13T11:04:30.132Z,82.32
2022-12-13T11:07:01.482Z,82.51
2022-12-13T11:09:39.176Z,82.39
2022-12-13T11:12:17.328Z,82.11
2022-12-13T11:15:01.932Z,81.70
2022-12-13T11:17:33.237Z,81.85
2022-12-13T11:20:08.066Z,82.14
2022-12-13T11:22:39.083Z,82.30
2022-12-13T11:25:18.947Z,82.45
2022-12-13T11:28:31.643Z,82.44
2022-12-13T11:31:23.855Z,82.27
2022-12-13T11:34:10.000Z,82.14
2022-12-13T11:36:59.351Z,82.29
2022-12-13T11:39:34.213Z,82.16
2022-12-13T11:42:28.723Z,82.27
2022-12-13T11:45:30.754Z,81.94
2022-12-13T11:48:14.417Z,82.11
2022-12-13T11:50:47.343Z,82.20
2022-12-13T11:53:24.123Z,82.12
2022-12-13T11:55:56.706Z,82.24
2022-12-13T11:59:03.957Z,82.27
2022-12-13T12:01:54.197Z,82.23
2022-12-13T12:04:36.291Z,82.00
2022-12-13T12:07:34.439Z,81.97
2022-12-13T12:10:15.802Z,81.89
2022-12-13T12:12:49.933Z,82.00
2022-12-13T12:15:29.563Z,82.13
2022-12-13T12:17:58.209Z,82.29
2022-12-13T12:20:45.072Z,82.36
2022-12-13T12:23:52.760Z,82.47
2022-12-13T12:26:32.565Z,82.47
2022-12-13T12:29:04.115Z,82.48
2022-12-13T12:31:50.565Z,82.43
2022-12-13T12:34:38.093Z,82.31
2022-12-13T12:37:36.626Z,82.50
2022-12-13T12:40:17.036Z,82.52
2022-12-13T12:43:27.128Z,82.38
2022-12-13T12:45:56.975Z,82.14
2022-12-13T12:49:01.372Z,82.06
2022-12-13T12:51:34.740Z,82.21
2022-12-13T12:54:32.949Z,82.46
2022-12-13T12:57:15.573Z,82.34
2022-12-13T12:59:50.213Z,82.56
2022-12-13T13:02:34.556Z,82.53
2022-12-13T13:05:22.884Z,82.62
2022-12-13T13:07:59.776Z,82.58
2022-12-13T13:10:28.790Z,82.75
2022-12-13T13:13:11.589Z,82.59
2022-12-13T13:15:41.091Z,82.34
2022-12-13T13:18:47.909Z,82.26
2022-12-13T13:21:26.581Z,82.50
2022-12-13T13:24:10.185Z,82.15
2022-12-13T13:26:44.439Z,82.23
2022-12-13T13:29:27.228Z,82.17
2022-12-13T13:32:06.068Z,81.92
2022-12-13T13:34:41.388Z,81.95
2022-12-13T13:37:29.209Z,81.41
2022-12-13T13:39:59.627Z,81.29
2022-12-13T13:42:30.250Z,81.34
2022-12-13T13:45:21.390Z,80.90
2022-12-13T13:48:14.492Z,80.68
2022-12-13T13:51:20.396Z,80.50
2022-12-13T13:54:13.425Z,80.36
2022-12-13T13:57:06.363Z,80.06
2022-12-13T13:59:58.782Z,80.49
2022-12-13T14:02:32.856Z,80.48
2022-12-13T14:05:16.455Z,80.73
2022-12-13T14:08:03.584Z,80.84
2022-12-13T14:10:52.241Z,81.16
2022-12-13T14:13:50.623Z,81.11
2022-12-13T14:16:47.790Z,81.47
2022-12-13T14:19:37.906Z,81.48
2022-12-13T14:22:31.389Z,81.05
2022-12-13T14:25:40.614Z,81.43
2022-12-13T14:28:27.533Z,82.11
2022-12-13T14:30:58.306Z,82.26
2022-12-13T14:33:28.216Z,82.36
2022-12-13T14:36:05.180Z,82.26
2022-12-13T14:38:33.706Z,82.02
2022-12-13T14:41:04.126Z,81.76
2022-12-13T14:43:34.719Z,81.81
2022-12-13T14:46:08.181Z,81.57
2022-12-13T14:48:54.434Z,81.86
2022-12-13T14:51:40.551Z,81.87
2022-12-13T14:54:24.028Z,82.02
2022-12-13T14:57:02.740Z,82.01
2022-12-13T14:59:31.859Z,82.33
2022-12-13T15:02:06.151Z,82.46
2022-12-13T15:04:36.979Z,82.34
2022-12-13T15:07:37.088Z,82.67
2022-12-13T15:10:21.239Z,82.56
2022-12-13T15:12:54.859Z,82.48
2022-12-13T15:15:36.354Z,82.14
2022-12-13T15:18:19.488Z,82.28
2022-12-13T15:20:49.383Z,82.23
2022-12-13T15:23:23.401Z,82.43
2022-12-13T15:26:00.238Z,82.28
2022-12-13T15:28:35.465Z,82.30
2022-12-13T15:31:07.052Z,82.41
2022-12-13T15:33:39.453Z,82.29
2022-12-13T15:36:14.161Z,82.01
2022-12-13T15:38:50.160Z,81.74
2022-12-13T15:41:21.072Z,81.46
2022-12-13T15:44:04.355Z,81.71
2022-12-13T15:46:38.831Z,81.64
2022-12-13T15:49:37.184Z,81.69
2022-12-13T15:52:27.414Z,81.67
2022-12-13T15:55:08.199Z,81.73
2022-12-13T15:57:50.446Z,81.82
2022-12-13T16:00:18.585Z,81.70
2022-12-13T16:03:17.235Z,81.22
2022-12-13T16:05:55.871Z,81.52
2022-12-13T16:08:38.243Z,81.69
2022-12-13T16:11:09.002Z,80.78
2022-12-13T16:13:39.199Z,81.64
2022-12-13T16:16:30.974Z,80.98
2022-12-13T16:19:01.453Z,81.27
2022-12-13T16:21:31.107Z,80.69
2022-12-13T16:23:59.290Z,81.23
2022-12-13T16:26:30.416Z,80.67
2022-12-13T16:29:00.271Z,80.83
2022-12-13T16:31:36.486Z,80.87
2022-12-13T16:34:06.150Z,80.91
2022-12-13T16:36:34.720Z,81.48
2022-12-13T16:39:03.236Z,80.96
2022-12-13T16:41:32.100Z,79.77
2022-12-13T16:44:03.363Z,79.21
2022-12-13T16:47:13.038Z,78.19
2022-12-13T16:49:30.786Z,77.72
2022-12-13T16:51:59.253Z,79.77
2022-12-13T16:54:27.757Z,78.80
2022-12-13T16:56:56.107Z,78.66
2022-12-13T16:59:26.127Z,79.91
2022-12-13T17:01:55.185Z,79.84
2022-12-13T17:04:25.577Z,78.06
2022-12-13T17:06:55.469Z,74.85
2022-12-13T17:09:25.966Z,73.10
2022-12-13T17:11:54.309Z,72.51
2022-12-13T17:14:22.601Z,72.72
2022-12-13T17:16:51.048Z,71.91
2022-12-13T17:19:19.396Z,74.05
2022-12-13T17:21:47.705Z,73.52
2022-12-13T17:24:16.334Z,73.49
2022-12-13T17:26:53.809Z,73.69
2022-12-13T17:29:22.606Z,73.52
2022-12-13T17:31:50.899Z,72.23
2022-12-13T17:34:19.151Z,70.00
2022-12-13T17:36:47.562Z,70.75
2022-12-13T17:39:15.837Z,68.92
2022-12-13T17:41:44.174Z,68.13
2022-12-13T17:44:23.154Z,68.47
2022-12-13T17:46:54.862Z,70.81
2022-12-13T17:49:24.865Z,68.27
2022-12-13T17:51:55.164Z,68.65
2022-12-13T17:54:27.133Z,67.97
2022-12-13T17:56:55.635Z,68.90
2022-12-13T17:59:24.339Z,69.38
2022-12-13T18:01:53.015Z,68.69
2022-12-13T18:04:22.439Z,67.12
2022-12-13T18:06:53.274Z,67.27
2022-12-13T18:09:22.291Z,69.74
2022-12-13T18:11:50.618Z,70.22
2022-12-13T18:14:18.951Z,69.19
2022-12-13T18:16:47.700Z,69.00
2022-12-13T18:19:16.083Z,67.65
2022-12-13T18:21:44.691Z,67.74
2022-12-13T18:24:13.723Z,64.16
2022-12-13T18:26:41.982Z,63.88
2022-12-13T18:29:10.475Z,65.77
2022-12-13T18:31:39.047Z,65.42
2022-12-13T18:34:07.479Z,65.11
2022-12-13T18:36:36.322Z,65.79
2022-12-13T18:39:05.328Z,65.16
2022-12-13T18:41:33.960Z,65.17
2022-12-13T18:44:07.553Z,65.93
2022-12-13T18:46:37.689Z,66.09
2022-12-13T18:49:07.523Z,66.57
2022-12-13T18:51:36.122Z,66.63
2022-12-13T18:54:04.592Z,66.53
2022-12-13T18:56:32.866Z,66.70
2022-12-13T18:59:01.113Z,66.64
2022-12-13T19:01:29.527Z,66.56
2022-12-13T19:03:57.993Z,67.02
2022-12-13T19:06:29.068Z,66.73
2022-12-13T19:08:59.336Z,67.04
2022-12-13T19:11:29.305Z,67.50
2022-12-13T19:13:58.019Z,67.73
2022-12-13T19:16:27.729Z,66.03
2022-12-13T19:18:58.975Z,65.73
2022-12-13T19:21:28.223Z,65.59
2022-12-13T19:23:58.507Z,65.62
2022-12-13T19:26:28.985Z,64.85
2022-12-13T19:28:59.427Z,62.51
2022-12-13T19:31:31.588Z,62.66
2022-12-13T19:34:02.609Z,62.91
2022-12-13T19:36:32.655Z,62.61
2022-12-13T19:39:00.968Z,62.56
2022-12-13T19:41:30.595Z,62.86
2022-12-13T19:43:59.303Z,62.20
2022-12-13T19:46:28.059Z,61.16
2022-12-13T19:48:56.415Z,61.30
2022-12-13T19:51:24.854Z,62.72
2022-12-13T19:53:53.187Z,62.21
2022-12-13T19:56:22.763Z,62.13
2022-12-13T19:58:52.233Z,61.73
2022-12-13T20:01:20.601Z,61.55
2022-12-13T20:03:49.637Z,61.01
2022-12-13T20:06:21.165Z,60.67
2022-12-13T20:08:51.145Z,60.28
2022-12-13T20:11:24.430Z,60.41
2022-12-13T20:13:55.896Z,59.57
2022-12-13T20:16:27.797Z,59.74
2022-12-13T20:19:02.482Z,59.78
2022-12-13T20:21:31.322Z,59.42
2022-12-13T20:24:00.056Z,59.63
2022-12-13T20:26:30.493Z,59.21
2022-12-13T20:28:59.184Z,59.08
2022-12-13T20:31:35.921Z,58.30
2022-12-13T20:34:07.547Z,59.55
2022-12-13T20:36:35.857Z,59.15
2022-12-13T20:39:06.367Z,58.76
2022-12-13T20:41:37.017Z,58.89
2022-12-13T20:44:07.843Z,59.13
2022-12-13T20:46:36.436Z,59.13
2022-12-13T20:49:06.806Z,59.22
2022-12-13T20:51:36.459Z,59.17
2022-12-13T20:54:05.545Z,59.22
2022-12-13T20:56:36.487Z,59.81
2022-12-13T20:59:06.952Z,60.43
2022-12-13T21:01:38.821Z,60.62
2022-12-13T21:04:08.264Z,61.38
2022-12-13T21:06:39.508Z,60.80
2022-12-13T21:09:10.511Z,60.81
2022-12-13T21:11:46.461Z,60.87
2022-12-13T21:14:22.469Z,60.15
2022-12-13T21:16:58.806Z,59.83
2022-12-13T21:19:39.567Z,60.34
2022-12-13T21:22:08.892Z,61.27
2022-12-13T21:24:37.177Z,60.82
2022-12-13T21:27:05.456Z,60.20
2022-12-13T21:29:33.665Z,60.43
2022-12-13T21:32:02.082Z,61.15
2022-12-13T21:34:30.891Z,61.04
2022-12-13T21:36:59.275Z,61.08
2022-12-13T21:39:31.736Z,61.02
2022-12-13T21:42:00.644Z,60.69
2022-12-13T21:44:29.316Z,60.55
2022-12-13T21:47:13.592Z,60.92
2022-12-13T21:49:48.740Z,61.49
2022-12-13T21:52:17.482Z,61.94
2022-12-13T21:54:45.770Z,61.68
2022-12-13T21:57:32.962Z,62.35
2022-12-13T22:00:01.277Z,63.20
2022-12-13T22:02:29.629Z,62.59
2022-12-13T22:04:59.834Z,63.13
2022-12-13T22:07:30.855Z,63.58
2022-12-13T22:10:01.002Z,63.44
2022-12-13T22:12:40.692Z,64.45
2022-12-13T22:15:11.558Z,64.50
2022-12-13T22:17:40.755Z,65.04
2022-12-13T22:20:15.017Z,65.21
2022-12-13T22:22:49.381Z,64.59
2022-12-13T22:25:17.701Z,65.04
2022-12-13T22:27:45.944Z,65.02
2022-12-13T22:30:14.873Z,64.55
2022-12-13T22:32:45.184Z,63.54
2022-12-13T22:35:14.908Z,62.83
2022-12-13T22:37:43.258Z,62.22
2022-12-13T22:40:12.088Z,61.90
2022-12-13T22:42:43.734Z,60.76
2022-12-13T22:45:16.817Z,59.72
2022-12-13T22:47:45.083Z,58.97
2022-12-13T22:50:13.340Z,58.28
2022-12-13T22:52:42.025Z,57.53
2022-12-13T22:55:10.814Z,56.46
2022-12-13T22:57:39.270Z,55.13
2022-12-13T23:00:11.016Z,55.30
2022-12-13T23:02:39.395Z,54.83
2022-12-13T23:05:07.856Z,55.05
2022-12-13T23:07:39.744Z,55.50
2022-12-13T23:10:44.431Z,57.05
2022-12-13T23:13:15.484Z,57.06
2022-12-13T23:15:49.183Z,58.06
2022-12-13T23:18:17.862Z,58.77
2022-12-13T23:20:50.301Z,59.73
2022-12-13T23:23:18.621Z,60.11
2022-12-13T23:25:49.075Z,60.29
2022-12-13T23:28:17.516Z,61.05
2022-12-13T23:30:45.991Z,61.24
2022-12-13T23:33:14.274Z,60.52
2022-12-13T23:35:44.566Z,61.15
2022-12-13T23:38:12.979Z,61.46
2022-12-13T23:40:41.414Z,60.92
2022-12-13T23:43:10.419Z,61.51
2022-12-13T23:45:41.970Z,61.31
2022-12-13T23:48:13.231Z,61.83
2022-12-13T23:50:41.909Z,61.82
2022-12-13T23:53:10.202Z,61.93
2022-12-13T23:55:42.023Z,62.72
2022-12-13T23:58:10.365Z,63.28
